sensor_id;sensor_type;location;lat;lon;timestamp;P1;durP1;ratioP1;P2;durP2;ratioP2
48363;SDS011;34170;54.364;18.582;2023-12-20T00:02:27;3.65;;;0.98;;
48363;SDS011;34170;54.364;18.582;2023-12-20T00:04:55;1.00;;;0.60;;
48363;SDS011;34170;54.364;18.582;2023-12-20T00:07:23;1.50;;;0.70;;
48363;SDS011;34170;54.364;18.582;2023-12-20T00:09:50;1.67;;;0.75;;
48363;SDS011;34170;54.364;18.582;2023-12-20T00:12:18;1.63;;;0.68;;
48363;SDS011;34170;54.364;18.582;2023-12-20T00:14:45;1.45;;;0.60;;
48363;SDS011;34170;54.364;18.582;2023-12-20T00:17:13;1.75;;;0.80;;
48363;SDS011;34170;54.364;18.582;2023-12-20T00:19:41;1.67;;;0.60;;
48363;SDS011;34170;54.364;18.582;2023-12-20T00:22:08;1.02;;;0.47;;
48363;SDS011;34170;54.364;18.582;2023-12-20T00:24:36;1.08;;;0.50;;
48363;SDS011;34170;54.364;18.582;2023-12-20T00:27:04;1.00;;;0.40;;
48363;SDS011;34170;54.364;18.582;2023-12-20T00:29:36;2.05;;;0.40;;
48363;SDS011;34170;54.364;18.582;2023-12-20T00:32:04;1.17;;;0.50;;
48363;SDS011;34170;54.364;18.582;2023-12-20T00:34:31;0.45;;;0.30;;
48363;SDS011;34170;54.364;18.582;2023-12-20T00:36:59;2.00;;;0.75;;
48363;SDS011;34170;54.364;18.582;2023-12-20T00:39:27;1.17;;;0.65;;
48363;SDS011;34170;54.364;18.582;2023-12-20T00:41:54;0.82;;;0.30;;
48363;SDS011;34170;54.364;18.582;2023-12-20T00:44:22;0.90;;;0.38;;
48363;SDS011;34170;54.364;18.582;2023-12-20T00:46:49;0.47;;;0.20;;
48363;SDS011;34170;54.364;18.582;2023-12-20T00:49:17;1.17;;;0.28;;
48363;SDS011;34170;54.364;18.582;2023-12-20T00:51:45;0.70;;;0.20;;
48363;SDS011;34170;54.364;18.582;2023-12-20T00:54:14;0.90;;;0.20;;
48363;SDS011;34170;54.364;18.582;2023-12-20T00:56:41;0.68;;;0.20;;
48363;SDS011;34170;54.364;18.582;2023-12-20T00:59:09;1.00;;;0.20;;
48363;SDS011;34170;54.364;18.582;2023-12-20T01:01:37;0.40;;;0.10;;
48363;SDS011;34170;54.364;18.582;2023-12-20T01:04:05;0.55;;;0.20;;
48363;SDS011;34170;54.364;18.582;2023-12-20T01:06:33;0.25;;;0.03;;
48363;SDS011;34170;54.364;18.582;2023-12-20T01:09:01;2.95;;;0.43;;
48363;SDS011;34170;54.364;18.582;2023-12-20T01:11:28;1.25;;;0.17;;
48363;SDS011;34170;54.364;18.582;2023-12-20T01:13:56;1.50;;;0.10;;
48363;SDS011;34170;54.364;18.582;2023-12-20T01:16:23;1.65;;;0.10;;
48363;SDS011;34170;54.364;18.582;2023-12-20T01:18:51;1.95;;;0.35;;
48363;SDS011;34170;54.364;18.582;2023-12-20T01:21:19;2.95;;;0.20;;
48363;SDS011;34170;54.364;18.582;2023-12-20T01:23:46;1.10;;;0.10;;
48363;SDS011;34170;54.364;18.582;2023-12-20T01:26:14;1.40;;;0.10;;
48363;SDS011;34170;54.364;18.582;2023-12-20T01:28:42;1.30;;;0.10;;
48363;SDS011;34170;54.364;18.582;2023-12-20T01:31:10;2.85;;;0.20;;
48363;SDS011;34170;54.364;18.582;2023-12-20T01:33:37;2.85;;;0.20;;
48363;SDS011;34170;54.364;18.582;2023-12-20T01:36:05;1.20;;;0.10;;
48363;SDS011;34170;54.364;18.582;2023-12-20T01:38:33;4.70;;;0.55;;
48363;SDS011;34170;54.364;18.582;2023-12-20T01:41:00;1.45;;;0.30;;
48363;SDS011;34170;54.364;18.582;2023-12-20T01:43:28;1.00;;;0.30;;
48363;SDS011;34170;54.364;18.582;2023-12-20T01:46:04;2.00;;;0.20;;
48363;SDS011;34170;54.364;18.582;2023-12-20T01:48:32;2.28;;;0.40;;
48363;SDS011;34170;54.364;18.582;2023-12-20T01:51:00;2.38;;;0.30;;
48363;SDS011;34170;54.364;18.582;2023-12-20T01:53:28;3.55;;;0.57;;
48363;SDS011;34170;54.364;18.582;2023-12-20T01:55:57;0.90;;;0.30;;
48363;SDS011;34170;54.364;18.582;2023-12-20T01:58:25;5.55;;;0.30;;
48363;SDS011;34170;54.364;18.582;2023-12-20T02:00:54;2.28;;;0.20;;
48363;SDS011;34170;54.364;18.582;2023-12-20T02:03:22;4.95;;;0.85;;
48363;SDS011;34170;54.364;18.582;2023-12-20T02:05:50;1.48;;;0.30;;
48363;SDS011;34170;54.364;18.582;2023-12-20T02:08:18;2.88;;;0.40;;
48363;SDS011;34170;54.364;18.582;2023-12-20T02:10:46;2.97;;;0.22;;
48363;SDS011;34170;54.364;18.582;2023-12-20T02:13:14;3.47;;;0.20;;
48363;SDS011;34170;54.364;18.582;2023-12-20T02:15:42;2.47;;;0.20;;
48363;SDS011;34170;54.364;18.582;2023-12-20T02:18:11;2.90;;;0.30;;
48363;SDS011;34170;54.364;18.582;2023-12-20T02:20:42;8.80;;;0.68;;
48363;SDS011;34170;54.364;18.582;2023-12-20T02:23:10;4.68;;;0.38;;
48363;SDS011;34170;54.364;18.582;2023-12-20T02:25:38;6.30;;;0.43;;
48363;SDS011;34170;54.364;18.582;2023-12-20T02:28:05;8.88;;;0.95;;
48363;SDS011;34170;54.364;18.582;2023-12-20T02:30:34;4.50;;;0.50;;
48363;SDS011;34170;54.364;18.582;2023-12-20T02:33:01;6.45;;;1.00;;
48363;SDS011;34170;54.364;18.582;2023-12-20T02:35:35;9.43;;;1.05;;
48363;SDS011;34170;54.364;18.582;2023-12-20T02:38:02;4.75;;;0.70;;
48363;SDS011;34170;54.364;18.582;2023-12-20T02:40:30;7.15;;;0.68;;
48363;SDS011;34170;54.364;18.582;2023-12-20T02:42:57;9.50;;;1.02;;
48363;SDS011;34170;54.364;18.582;2023-12-20T02:45:26;5.40;;;0.73;;
48363;SDS011;34170;54.364;18.582;2023-12-20T02:47:54;6.97;;;0.70;;
48363;SDS011;34170;54.364;18.582;2023-12-20T02:50:21;7.90;;;1.10;;
48363;SDS011;34170;54.364;18.582;2023-12-20T02:52:49;7.05;;;1.00;;
48363;SDS011;34170;54.364;18.582;2023-12-20T02:55:17;4.07;;;0.55;;
48363;SDS011;34170;54.364;18.582;2023-12-20T02:57:44;4.75;;;0.75;;
48363;SDS011;34170;54.364;18.582;2023-12-20T03:00:12;6.47;;;0.95;;
48363;SDS011;34170;54.364;18.582;2023-12-20T03:02:40;5.65;;;0.98;;
48363;SDS011;34170;54.364;18.582;2023-12-20T03:05:08;6.90;;;0.73;;
48363;SDS011;34170;54.364;18.582;2023-12-20T03:07:36;6.20;;;0.88;;
48363;SDS011;34170;54.364;18.582;2023-12-20T03:10:05;6.07;;;0.75;;
48363;SDS011;34170;54.364;18.582;2023-12-20T03:12:46;10.23;;;1.30;;
48363;SDS011;34170;54.364;18.582;2023-12-20T03:15:14;4.32;;;0.55;;
48363;SDS011;34170;54.364;18.582;2023-12-20T03:17:41;8.73;;;1.52;;
48363;SDS011;34170;54.364;18.582;2023-12-20T03:20:10;5.85;;;1.08;;
48363;SDS011;34170;54.364;18.582;2023-12-20T03:22:37;7.47;;;1.25;;
48363;SDS011;34170;54.364;18.582;2023-12-20T03:25:05;7.07;;;1.13;;
48363;SDS011;34170;54.364;18.582;2023-12-20T03:27:32;3.85;;;0.90;;
48363;SDS011;34170;54.364;18.582;2023-12-20T03:30:00;7.90;;;1.02;;
48363;SDS011;34170;54.364;18.582;2023-12-20T03:32:27;8.10;;;1.40;;
48363;SDS011;34170;54.364;18.582;2023-12-20T03:34:55;3.92;;;0.77;;
48363;SDS011;34170;54.364;18.582;2023-12-20T03:37:23;14.38;;;1.40;;
48363;SDS011;34170;54.364;18.582;2023-12-20T03:39:51;5.97;;;1.23;;
48363;SDS011;34170;54.364;18.582;2023-12-20T03:42:18;9.60;;;1.00;;
48363;SDS011;34170;54.364;18.582;2023-12-20T03:44:46;11.40;;;1.50;;
48363;SDS011;34170;54.364;18.582;2023-12-20T03:47:13;10.93;;;1.58;;
48363;SDS011;34170;54.364;18.582;2023-12-20T03:49:41;6.57;;;1.20;;
48363;SDS011;34170;54.364;18.582;2023-12-20T03:52:08;7.50;;;1.02;;
48363;SDS011;34170;54.364;18.582;2023-12-20T03:54:36;7.40;;;1.60;;
48363;SDS011;34170;54.364;18.582;2023-12-20T03:57:04;6.93;;;1.52;;
48363;SDS011;34170;54.364;18.582;2023-12-20T03:59:35;10.45;;;1.13;;
48363;SDS011;34170;54.364;18.582;2023-12-20T04:02:03;3.97;;;0.80;;
48363;SDS011;34170;54.364;18.582;2023-12-20T04:04:31;11.02;;;1.13;;
48363;SDS011;34170;54.364;18.582;2023-12-20T04:06:59;5.78;;;0.57;;
48363;SDS011;34170;54.364;18.582;2023-12-20T04:09:27;5.78;;;1.00;;
48363;SDS011;34170;54.364;18.582;2023-12-20T04:11:54;7.93;;;0.90;;
48363;SDS011;34170;54.364;18.582;2023-12-20T04:14:22;6.53;;;0.85;;
48363;SDS011;34170;54.364;18.582;2023-12-20T04:16:49;6.90;;;0.82;;
48363;SDS011;34170;54.364;18.582;2023-12-20T04:19:17;6.95;;;0.93;;
48363;SDS011;34170;54.364;18.582;2023-12-20T04:21:44;7.00;;;0.90;;
48363;SDS011;34170;54.364;18.582;2023-12-20T04:24:12;8.27;;;1.10;;
48363;SDS011;34170;54.364;18.582;2023-12-20T04:26:39;5.03;;;1.17;;
48363;SDS011;34170;54.364;18.582;2023-12-20T04:29:07;8.55;;;1.17;;
48363;SDS011;34170;54.364;18.582;2023-12-20T04:31:34;5.75;;;1.20;;
48363;SDS011;34170;54.364;18.582;2023-12-20T04:34:02;15.95;;;1.67;;
48363;SDS011;34170;54.364;18.582;2023-12-20T04:36:30;8.52;;;1.10;;
48363;SDS011;34170;54.364;18.582;2023-12-20T04:38:57;12.50;;;3.10;;
48363;SDS011;34170;54.364;18.582;2023-12-20T04:41:26;10.75;;;1.05;;
48363;SDS011;34170;54.364;18.582;2023-12-20T04:43:55;9.55;;;1.52;;
48363;SDS011;34170;54.364;18.582;2023-12-20T04:46:22;9.10;;;0.90;;
48363;SDS011;34170;54.364;18.582;2023-12-20T04:48:50;5.57;;;0.95;;
48363;SDS011;34170;54.364;18.582;2023-12-20T04:51:17;5.38;;;1.02;;
48363;SDS011;34170;54.364;18.582;2023-12-20T04:53:45;5.80;;;0.80;;
48363;SDS011;34170;54.364;18.582;2023-12-20T04:56:12;4.47;;;1.40;;
48363;SDS011;34170;54.364;18.582;2023-12-20T04:58:40;7.13;;;0.88;;
48363;SDS011;34170;54.364;18.582;2023-12-20T05:01:09;10.80;;;2.15;;
48363;SDS011;34170;54.364;18.582;2023-12-20T05:03:37;10.73;;;1.40;;
48363;SDS011;34170;54.364;18.582;2023-12-20T05:06:04;5.03;;;1.20;;
48363;SDS011;34170;54.364;18.582;2023-12-20T05:08:32;7.18;;;1.30;;
48363;SDS011;34170;54.364;18.582;2023-12-20T05:11:00;5.57;;;1.00;;
48363;SDS011;34170;54.364;18.582;2023-12-20T05:13:27;6.68;;;1.30;;
48363;SDS011;34170;54.364;18.582;2023-12-20T05:16:08;5.18;;;1.45;;
48363;SDS011;34170;54.364;18.582;2023-12-20T05:18:36;11.45;;;1.63;;
48363;SDS011;34170;54.364;18.582;2023-12-20T05:21:03;5.68;;;1.45;;
48363;SDS011;34170;54.364;18.582;2023-12-20T05:23:31;8.35;;;2.28;;
48363;SDS011;34170;54.364;18.582;2023-12-20T05:25:59;10.35;;;1.20;;
48363;SDS011;34170;54.364;18.582;2023-12-20T05:28:26;6.25;;;1.00;;
48363;SDS011;34170;54.364;18.582;2023-12-20T05:30:54;8.57;;;1.80;;
48363;SDS011;34170;54.364;18.582;2023-12-20T05:33:22;5.97;;;1.67;;
48363;SDS011;34170;54.364;18.582;2023-12-20T05:35:49;6.72;;;1.45;;
48363;SDS011;34170;54.364;18.582;2023-12-20T05:38:17;9.30;;;1.52;;
48363;SDS011;34170;54.364;18.582;2023-12-20T05:40:45;5.70;;;1.67;;
48363;SDS011;34170;54.364;18.582;2023-12-20T05:43:13;8.10;;;1.42;;
48363;SDS011;34170;54.364;18.582;2023-12-20T05:45:40;16.63;;;2.20;;
48363;SDS011;34170;54.364;18.582;2023-12-20T05:48:08;6.80;;;0.90;;
48363;SDS011;34170;54.364;18.582;2023-12-20T05:50:35;9.13;;;1.73;;
48363;SDS011;34170;54.364;18.582;2023-12-20T05:53:04;9.13;;;1.35;;
48363;SDS011;34170;54.364;18.582;2023-12-20T05:55:31;10.32;;;1.25;;
48363;SDS011;34170;54.364;18.582;2023-12-20T05:57:59;5.97;;;1.23;;
48363;SDS011;34170;54.364;18.582;2023-12-20T06:00:28;4.18;;;1.08;;
48363;SDS011;34170;54.364;18.582;2023-12-20T06:02:55;7.57;;;1.67;;
48363;SDS011;34170;54.364;18.582;2023-12-20T06:05:23;6.63;;;1.48;;
48363;SDS011;34170;54.364;18.582;2023-12-20T06:07:51;8.77;;;1.60;;
48363;SDS011;34170;54.364;18.582;2023-12-20T06:10:18;7.78;;;1.33;;
48363;SDS011;34170;54.364;18.582;2023-12-20T06:12:46;8.20;;;1.40;;
48363;SDS011;34170;54.364;18.582;2023-12-20T06:15:17;7.53;;;1.80;;
48363;SDS011;34170;54.364;18.582;2023-12-20T06:17:45;11.25;;;1.73;;
48363;SDS011;34170;54.364;18.582;2023-12-20T06:20:15;10.50;;;1.42;;
48363;SDS011;34170;54.364;18.582;2023-12-20T06:22:43;5.82;;;1.42;;
48363;SDS011;34170;54.364;18.582;2023-12-20T06:25:10;11.45;;;2.17;;
48363;SDS011;34170;54.364;18.582;2023-12-20T06:27:38;8.25;;;1.38;;
48363;SDS011;34170;54.364;18.582;2023-12-20T06:30:05;8.23;;;1.35;;
48363;SDS011;34170;54.364;18.582;2023-12-20T06:32:34;11.48;;;1.58;;
48363;SDS011;34170;54.364;18.582;2023-12-20T06:35:02;12.05;;;3.38;;
48363;SDS011;34170;54.364;18.582;2023-12-20T06:37:32;7.60;;;1.90;;
48363;SDS011;34170;54.364;18.582;2023-12-20T06:39:59;4.13;;;1.38;;
48363;SDS011;34170;54.364;18.582;2023-12-20T06:42:27;9.07;;;1.75;;
48363;SDS011;34170;54.364;18.582;2023-12-20T06:44:57;7.88;;;1.85;;
48363;SDS011;34170;54.364;18.582;2023-12-20T06:47:25;6.40;;;1.65;;
48363;SDS011;34170;54.364;18.582;2023-12-20T06:49:53;12.32;;;3.30;;
48363;SDS011;34170;54.364;18.582;2023-12-20T06:52:21;5.97;;;1.45;;
48363;SDS011;34170;54.364;18.582;2023-12-20T06:54:49;6.60;;;1.48;;
48363;SDS011;34170;54.364;18.582;2023-12-20T06:57:17;13.32;;;2.45;;
48363;SDS011;34170;54.364;18.582;2023-12-20T06:59:45;5.68;;;1.50;;
48363;SDS011;34170;54.364;18.582;2023-12-20T07:02:12;11.38;;;1.88;;
48363;SDS011;34170;54.364;18.582;2023-12-20T07:04:41;9.50;;;1.60;;
48363;SDS011;34170;54.364;18.582;2023-12-20T07:07:09;10.40;;;2.20;;
48363;SDS011;34170;54.364;18.582;2023-12-20T07:09:36;9.13;;;1.60;;
48363;SDS011;34170;54.364;18.582;2023-12-20T07:12:05;12.57;;;2.00;;
48363;SDS011;34170;54.364;18.582;2023-12-20T07:14:33;7.20;;;1.48;;
48363;SDS011;34170;54.364;18.582;2023-12-20T07:17:00;8.65;;;1.80;;
48363;SDS011;34170;54.364;18.582;2023-12-20T07:19:28;6.07;;;1.40;;
48363;SDS011;34170;54.364;18.582;2023-12-20T07:21:56;9.23;;;1.75;;
48363;SDS011;34170;54.364;18.582;2023-12-20T07:24:23;9.45;;;1.27;;
48363;SDS011;34170;54.364;18.582;2023-12-20T07:26:51;4.55;;;1.38;;
48363;SDS011;34170;54.364;18.582;2023-12-20T07:29:18;11.65;;;2.05;;
48363;SDS011;34170;54.364;18.582;2023-12-20T07:31:46;11.77;;;2.35;;
48363;SDS011;34170;54.364;18.582;2023-12-20T07:34:14;10.23;;;2.10;;
48363;SDS011;34170;54.364;18.582;2023-12-20T07:36:41;7.85;;;1.88;;
48363;SDS011;34170;54.364;18.582;2023-12-20T07:39:09;9.75;;;2.42;;
48363;SDS011;34170;54.364;18.582;2023-12-20T07:41:37;12.27;;;2.40;;
48363;SDS011;34170;54.364;18.582;2023-12-20T07:44:06;11.88;;;2.22;;
48363;SDS011;34170;54.364;18.582;2023-12-20T07:46:35;13.48;;;2.65;;
48363;SDS011;34170;54.364;18.582;2023-12-20T07:49:03;7.93;;;1.90;;
48363;SDS011;34170;54.364;18.582;2023-12-20T07:51:33;14.35;;;2.38;;
48363;SDS011;34170;54.364;18.582;2023-12-20T07:54:00;9.40;;;2.70;;
48363;SDS011;34170;54.364;18.582;2023-12-20T07:56:28;13.05;;;2.80;;
48363;SDS011;34170;54.364;18.582;2023-12-20T07:58:55;16.20;;;3.20;;
48363;SDS011;34170;54.364;18.582;2023-12-20T08:01:26;8.97;;;3.07;;
48363;SDS011;34170;54.364;18.582;2023-12-20T08:03:54;6.35;;;2.30;;
48363;SDS011;34170;54.364;18.582;2023-12-20T08:06:21;6.13;;;1.75;;
48363;SDS011;34170;54.364;18.582;2023-12-20T08:08:49;7.97;;;2.40;;
48363;SDS011;34170;54.364;18.582;2023-12-20T08:11:28;12.85;;;2.22;;
48363;SDS011;34170;54.364;18.582;2023-12-20T08:13:57;8.68;;;1.40;;
48363;SDS011;34170;54.364;18.582;2023-12-20T08:16:24;8.82;;;1.70;;
48363;SDS011;34170;54.364;18.582;2023-12-20T08:18:52;9.70;;;1.75;;
48363;SDS011;34170;54.364;18.582;2023-12-20T08:21:20;11.38;;;1.52;;
48363;SDS011;34170;54.364;18.582;2023-12-20T08:23:49;5.85;;;1.55;;
48363;SDS011;34170;54.364;18.582;2023-12-20T08:26:18;8.27;;;1.42;;
48363;SDS011;34170;54.364;18.582;2023-12-20T08:28:51;6.55;;;1.77;;
48363;SDS011;34170;54.364;18.582;2023-12-20T08:31:19;5.88;;;1.13;;
48363;SDS011;34170;54.364;18.582;2023-12-20T08:33:47;6.78;;;1.50;;
48363;SDS011;34170;54.364;18.582;2023-12-20T08:36:16;5.72;;;1.73;;
48363;SDS011;34170;54.364;18.582;2023-12-20T08:38:44;4.50;;;1.27;;
48363;SDS011;34170;54.364;18.582;2023-12-20T08:41:13;6.03;;;1.33;;
48363;SDS011;34170;54.364;18.582;2023-12-20T08:43:40;6.97;;;1.23;;
48363;SDS011;34170;54.364;18.582;2023-12-20T08:46:08;9.18;;;1.65;;
48363;SDS011;34170;54.364;18.582;2023-12-20T08:48:39;4.97;;;0.98;;
48363;SDS011;34170;54.364;18.582;2023-12-20T08:51:07;7.60;;;1.08;;
48363;SDS011;34170;54.364;18.582;2023-12-20T08:53:35;3.88;;;0.98;;
48363;SDS011;34170;54.364;18.582;2023-12-20T08:56:03;6.35;;;1.15;;
48363;SDS011;34170;54.364;18.582;2023-12-20T08:58:31;7.20;;;1.38;;
48363;SDS011;34170;54.364;18.582;2023-12-20T09:00:59;5.22;;;1.17;;
48363;SDS011;34170;54.364;18.582;2023-12-20T09:03:26;8.43;;;1.25;;
48363;SDS011;34170;54.364;18.582;2023-12-20T09:05:54;3.78;;;0.85;;
48363;SDS011;34170;54.364;18.582;2023-12-20T09:08:22;6.10;;;1.70;;
48363;SDS011;34170;54.364;18.582;2023-12-20T09:10:49;3.83;;;0.80;;
48363;SDS011;34170;54.364;18.582;2023-12-20T09:13:17;7.88;;;1.23;;
48363;SDS011;34170;54.364;18.582;2023-12-20T09:15:44;5.20;;;1.27;;
48363;SDS011;34170;54.364;18.582;2023-12-20T09:18:12;6.68;;;1.20;;
48363;SDS011;34170;54.364;18.582;2023-12-20T09:20:40;7.45;;;1.35;;
48363;SDS011;34170;54.364;18.582;2023-12-20T09:23:10;9.77;;;1.52;;
48363;SDS011;34170;54.364;18.582;2023-12-20T09:25:38;9.10;;;1.40;;
48363;SDS011;34170;54.364;18.582;2023-12-20T09:28:05;8.50;;;1.38;;
48363;SDS011;34170;54.364;18.582;2023-12-20T09:30:33;4.70;;;0.98;;
48363;SDS011;34170;54.364;18.582;2023-12-20T09:33:02;3.55;;;1.15;;
48363;SDS011;34170;54.364;18.582;2023-12-20T09:35:30;4.95;;;0.85;;
48363;SDS011;34170;54.364;18.582;2023-12-20T09:37:58;5.88;;;1.02;;
48363;SDS011;34170;54.364;18.582;2023-12-20T09:40:26;7.78;;;1.38;;
48363;SDS011;34170;54.364;18.582;2023-12-20T09:42:58;7.32;;;1.27;;
48363;SDS011;34170;54.364;18.582;2023-12-20T09:45:31;7.00;;;1.40;;
48363;SDS011;34170;54.364;18.582;2023-12-20T09:47:59;5.68;;;1.38;;
48363;SDS011;34170;54.364;18.582;2023-12-20T09:50:28;5.22;;;0.98;;
48363;SDS011;34170;54.364;18.582;2023-12-20T09:53:00;4.07;;;1.00;;
48363;SDS011;34170;54.364;18.582;2023-12-20T09:55:29;6.57;;;1.38;;
48363;SDS011;34170;54.364;18.582;2023-12-20T09:57:59;7.03;;;1.02;;
48363;SDS011;34170;54.364;18.582;2023-12-20T10:00:27;7.28;;;1.20;;
48363;SDS011;34170;54.364;18.582;2023-12-20T10:02:58;4.68;;;1.42;;
48363;SDS011;34170;54.364;18.582;2023-12-20T10:05:29;8.75;;;1.30;;
48363;SDS011;34170;54.364;18.582;2023-12-20T10:08:01;9.18;;;1.58;;
48363;SDS011;34170;54.364;18.582;2023-12-20T10:10:30;5.63;;;1.40;;
48363;SDS011;34170;54.364;18.582;2023-12-20T10:13:11;6.47;;;1.65;;
48363;SDS011;34170;54.364;18.582;2023-12-20T10:15:41;7.60;;;1.23;;
48363;SDS011;34170;54.364;18.582;2023-12-20T10:18:09;7.90;;;1.13;;
48363;SDS011;34170;54.364;18.582;2023-12-20T10:20:40;6.45;;;1.10;;
48363;SDS011;34170;54.364;18.582;2023-12-20T10:23:09;5.70;;;1.33;;
48363;SDS011;34170;54.364;18.582;2023-12-20T10:25:37;6.75;;;1.15;;
48363;SDS011;34170;54.364;18.582;2023-12-20T10:28:15;8.50;;;1.48;;
48363;SDS011;34170;54.364;18.582;2023-12-20T10:30:47;8.05;;;1.48;;
48363;SDS011;34170;54.364;18.582;2023-12-20T10:33:23;10.20;;;1.60;;
48363;SDS011;34170;54.364;18.582;2023-12-20T10:35:54;9.63;;;1.17;;
48363;SDS011;34170;54.364;18.582;2023-12-20T10:38:23;7.80;;;1.35;;
48363;SDS011;34170;54.364;18.582;2023-12-20T10:40:54;7.35;;;1.50;;
48363;SDS011;34170;54.364;18.582;2023-12-20T10:43:26;5.57;;;1.48;;
48363;SDS011;34170;54.364;18.582;2023-12-20T10:45:56;6.47;;;1.57;;
48363;SDS011;34170;54.364;18.582;2023-12-20T10:48:24;6.40;;;1.50;;
48363;SDS011;34170;54.364;18.582;2023-12-20T10:50:57;6.63;;;1.50;;
48363;SDS011;34170;54.364;18.582;2023-12-20T10:53:25;4.88;;;1.40;;
48363;SDS011;34170;54.364;18.582;2023-12-20T10:55:54;5.32;;;1.48;;
48363;SDS011;34170;54.364;18.582;2023-12-20T10:58:24;5.63;;;1.45;;
48363;SDS011;34170;54.364;18.582;2023-12-20T11:00:57;4.00;;;1.58;;
48363;SDS011;34170;54.364;18.582;2023-12-20T11:03:31;9.20;;;2.40;;
48363;SDS011;34170;54.364;18.582;2023-12-20T11:08:42;5.13;;;1.60;;
48363;SDS011;34170;54.364;18.582;2023-12-20T11:11:17;10.13;;;2.17;;
48363;SDS011;34170;54.364;18.582;2023-12-20T11:14:00;9.95;;;1.73;;
48363;SDS011;34170;54.364;18.582;2023-12-20T11:16:32;8.02;;;2.67;;
48363;SDS011;34170;54.364;18.582;2023-12-20T11:19:14;6.85;;;2.55;;
48363;SDS011;34170;54.364;18.582;2023-12-20T11:21:42;4.63;;;2.03;;
48363;SDS011;34170;54.364;18.582;2023-12-20T11:24:10;8.93;;;2.70;;
48363;SDS011;34170;54.364;18.582;2023-12-20T11:26:38;10.07;;;2.35;;
48363;SDS011;34170;54.364;18.582;2023-12-20T11:29:29;5.55;;;2.08;;
48363;SDS011;34170;54.364;18.582;2023-12-20T11:31:59;5.82;;;2.20;;
48363;SDS011;34170;54.364;18.582;2023-12-20T11:34:27;5.13;;;2.15;;
48363;SDS011;34170;54.364;18.582;2023-12-20T11:36:59;8.07;;;3.15;;
48363;SDS011;34170;54.364;18.582;2023-12-20T11:39:27;9.18;;;2.80;;
48363;SDS011;34170;54.364;18.582;2023-12-20T11:41:56;6.82;;;2.40;;
48363;SDS011;34170;54.364;18.582;2023-12-20T11:44:27;8.25;;;2.42;;
48363;SDS011;34170;54.364;18.582;2023-12-20T11:46:58;3.97;;;2.15;;
48363;SDS011;34170;54.364;18.582;2023-12-20T11:49:25;7.80;;;2.28;;
48363;SDS011;34170;54.364;18.582;2023-12-20T11:51:53;6.20;;;2.35;;
48363;SDS011;34170;54.364;18.582;2023-12-20T11:54:21;3.50;;;1.80;;
48363;SDS011;34170;54.364;18.582;2023-12-20T11:56:48;5.80;;;2.33;;
48363;SDS011;34170;54.364;18.582;2023-12-20T11:59:16;6.82;;;2.42;;
48363;SDS011;34170;54.364;18.582;2023-12-20T12:01:50;7.40;;;1.90;;
48363;SDS011;34170;54.364;18.582;2023-12-20T12:04:19;4.78;;;2.25;;
48363;SDS011;34170;54.364;18.582;2023-12-20T12:06:47;8.23;;;2.72;;
48363;SDS011;34170;54.364;18.582;2023-12-20T12:09:15;7.80;;;2.38;;
48363;SDS011;34170;54.364;18.582;2023-12-20T12:11:42;5.53;;;2.25;;
48363;SDS011;34170;54.364;18.582;2023-12-20T12:14:10;9.95;;;2.30;;
48363;SDS011;34170;54.364;18.582;2023-12-20T12:16:38;3.88;;;1.70;;
48363;SDS011;34170;54.364;18.582;2023-12-20T12:19:06;6.50;;;2.35;;
48363;SDS011;34170;54.364;18.582;2023-12-20T12:21:34;4.85;;;1.70;;
48363;SDS011;34170;54.364;18.582;2023-12-20T12:24:08;4.22;;;1.80;;
48363;SDS011;34170;54.364;18.582;2023-12-20T12:26:37;3.65;;;1.50;;
48363;SDS011;34170;54.364;18.582;2023-12-20T12:29:07;4.53;;;1.48;;
48363;SDS011;34170;54.364;18.582;2023-12-20T12:31:35;3.13;;;1.42;;
48363;SDS011;34170;54.364;18.582;2023-12-20T12:34:02;4.55;;;1.60;;
48363;SDS011;34170;54.364;18.582;2023-12-20T12:36:31;5.35;;;1.30;;
48363;SDS011;34170;54.364;18.582;2023-12-20T12:39:01;4.03;;;1.50;;
48363;SDS011;34170;54.364;18.582;2023-12-20T12:41:30;3.58;;;1.27;;
48363;SDS011;34170;54.364;18.582;2023-12-20T12:43:58;3.17;;;1.30;;
48363;SDS011;34170;54.364;18.582;2023-12-20T12:46:37;4.22;;;1.10;;
48363;SDS011;34170;54.364;18.582;2023-12-20T12:49:05;3.13;;;1.10;;
48363;SDS011;34170;54.364;18.582;2023-12-20T12:51:33;2.25;;;0.82;;
48363;SDS011;34170;54.364;18.582;2023-12-20T12:54:00;2.13;;;0.98;;
48363;SDS011;34170;54.364;18.582;2023-12-20T12:56:28;1.65;;;0.93;;
48363;SDS011;34170;54.364;18.582;2023-12-20T12:58:56;2.67;;;0.90;;
48363;SDS011;34170;54.364;18.582;2023-12-20T13:01:24;1.58;;;0.55;;
48363;SDS011;34170;54.364;18.582;2023-12-20T13:03:51;1.08;;;0.40;;
48363;SDS011;34170;54.364;18.582;2023-12-20T13:06:20;1.30;;;0.50;;
48363;SDS011;34170;54.364;18.582;2023-12-20T13:08:47;1.85;;;0.52;;
48363;SDS011;34170;54.364;18.582;2023-12-20T13:11:15;1.45;;;0.60;;
48363;SDS011;34170;54.364;18.582;2023-12-20T13:13:42;1.90;;;0.68;;
48363;SDS011;34170;54.364;18.582;2023-12-20T13:16:10;1.35;;;0.47;;
48363;SDS011;34170;54.364;18.582;2023-12-20T13:18:40;1.02;;;0.50;;
48363;SDS011;34170;54.364;18.582;2023-12-20T13:21:10;1.70;;;0.43;;
48363;SDS011;34170;54.364;18.582;2023-12-20T13:23:37;1.58;;;0.50;;
48363;SDS011;34170;54.364;18.582;2023-12-20T13:26:07;1.15;;;0.60;;
48363;SDS011;34170;54.364;18.582;2023-12-20T13:28:34;2.25;;;0.68;;
48363;SDS011;34170;54.364;18.582;2023-12-20T13:31:02;1.67;;;0.60;;
48363;SDS011;34170;54.364;18.582;2023-12-20T13:33:30;2.08;;;0.68;;
48363;SDS011;34170;54.364;18.582;2023-12-20T13:35:58;2.17;;;0.70;;
48363;SDS011;34170;54.364;18.582;2023-12-20T13:38:28;2.33;;;0.50;;
48363;SDS011;34170;54.364;18.582;2023-12-20T13:40:55;2.22;;;0.63;;
48363;SDS011;34170;54.364;18.582;2023-12-20T13:43:25;1.40;;;0.60;;
48363;SDS011;34170;54.364;18.582;2023-12-20T13:45:53;1.95;;;0.77;;
48363;SDS011;34170;54.364;18.582;2023-12-20T13:48:20;1.95;;;0.60;;
48363;SDS011;34170;54.364;18.582;2023-12-20T13:50:48;1.20;;;0.40;;
48363;SDS011;34170;54.364;18.582;2023-12-20T13:53:16;2.25;;;0.40;;
48363;SDS011;34170;54.364;18.582;2023-12-20T13:55:43;0.98;;;0.38;;
48363;SDS011;34170;54.364;18.582;2023-12-20T13:58:11;2.35;;;0.50;;
48363;SDS011;34170;54.364;18.582;2023-12-20T14:00:40;2.67;;;0.85;;
48363;SDS011;34170;54.364;18.582;2023-12-20T14:03:07;1.60;;;0.50;;
48363;SDS011;34170;54.364;18.582;2023-12-20T14:05:37;2.85;;;0.50;;
48363;SDS011;34170;54.364;18.582;2023-12-20T14:08:04;0.93;;;0.35;;
48363;SDS011;34170;54.364;18.582;2023-12-20T14:10:32;1.65;;;0.90;;
48363;SDS011;34170;54.364;18.582;2023-12-20T14:13:00;1.88;;;0.57;;
48363;SDS011;34170;54.364;18.582;2023-12-20T14:15:28;3.10;;;1.00;;
48363;SDS011;34170;54.364;18.582;2023-12-20T14:17:55;1.85;;;0.60;;
48363;SDS011;34170;54.364;18.582;2023-12-20T14:20:23;5.05;;;1.05;;
48363;SDS011;34170;54.364;18.582;2023-12-20T14:22:51;2.80;;;0.80;;
48363;SDS011;34170;54.364;18.582;2023-12-20T14:25:19;1.80;;;0.77;;
48363;SDS011;34170;54.364;18.582;2023-12-20T14:27:46;3.15;;;1.08;;
48363;SDS011;34170;54.364;18.582;2023-12-20T14:30:14;3.45;;;0.80;;
48363;SDS011;34170;54.364;18.582;2023-12-20T14:32:44;2.53;;;1.10;;
48363;SDS011;34170;54.364;18.582;2023-12-20T14:35:11;2.47;;;0.75;;
48363;SDS011;34170;54.364;18.582;2023-12-20T14:37:40;1.77;;;0.75;;
48363;SDS011;34170;54.364;18.582;2023-12-20T14:40:08;2.85;;;1.08;;
48363;SDS011;34170;54.364;18.582;2023-12-20T14:42:42;4.05;;;1.08;;
48363;SDS011;34170;54.364;18.582;2023-12-20T14:45:11;2.70;;;1.10;;